sensor_id;sensor_type;location;lat;lon;timestamp;temperature;humidity
66213;SHT31;53015;50.046;8.238;2022-11-03T00:01:00;7.76;91.28
66213;SHT31;53015;50.046;8.238;2022-11-03T00:03:26;7.63;91.75
66213;SHT31;53015;50.046;8.238;2022-11-03T00:05:52;7.58;92.61
66213;SHT31;53015;50.046;8.238;2022-11-03T00:08:39;7.55;92.31
66213;SHT31;53015;50.046;8.238;2022-11-03T00:11:09;7.76;92.04
66213;SHT31;53015;50.046;8.238;2022-11-03T00:13:36;7.90;91.22
66213;SHT31;53015;50.046;8.238;2022-11-03T00:16:02;7.77;91.23
66213;SHT31;53015;50.046;8.238;2022-11-03T00:18:27;7.79;91.25
66213;SHT31;53015;50.046;8.238;2022-11-03T00:23:27;7.65;91.78
66213;SHT31;53015;50.046;8.238;2022-11-03T00:25:52;7.56;92.28
66213;SHT31;53015;50.046;8.238;2022-11-03T00:28:18;7.46;92.21
66213;SHT31;53015;50.046;8.238;2022-11-03T00:30:43;7.28;92.68
66213;SHT31;53015;50.046;8.238;2022-11-03T00:33:09;7.34;93.11
66213;SHT31;53015;50.046;8.238;2022-11-03T00:35:34;7.31;93.00
66213;SHT31;53015;50.046;8.238;2022-11-03T00:38:00;7.28;93.12
66213;SHT31;53015;50.046;8.238;2022-11-03T00:40:25;7.34;93.15
66213;SHT31;53015;50.046;8.238;2022-11-03T00:42:50;7.34;93.04
66213;SHT31;53015;50.046;8.238;2022-11-03T00:45:16;7.29;93.01
66213;SHT31;53015;50.046;8.238;2022-11-03T00:47:41;7.27;93.02
66213;SHT31;53015;50.046;8.238;2022-11-03T00:50:27;7.41;92.71
66213;SHT31;53015;50.046;8.238;2022-11-03T00:52:52;7.34;92.71
66213;SHT31;53015;50.046;8.238;2022-11-03T00:55:18;7.31;92.48
66213;SHT31;53015;50.046;8.238;2022-11-03T00:57:43;7.25;92.56
66213;SHT31;53015;50.046;8.238;2022-11-03T01:00:10;7.48;92.39
66213;SHT31;53015;50.046;8.238;2022-11-03T01:02:36;7.46;92.16
66213;SHT31;53015;50.046;8.238;2022-11-03T01:05:01;7.52;91.75
66213;SHT31;53015;50.046;8.238;2022-11-03T01:07:45;7.39;92.13
66213;SHT31;53015;50.046;8.238;2022-11-03T01:10:11;7.38;92.48
66213;SHT31;53015;50.046;8.238;2022-11-03T01:12:36;7.27;93.00
66213;SHT31;53015;50.046;8.238;2022-11-03T01:15:01;7.31;92.77
66213;SHT31;53015;50.046;8.238;2022-11-03T01:17:28;7.31;92.81
66213;SHT31;53015;50.046;8.238;2022-11-03T01:19:54;7.38;92.61
66213;SHT31;53015;50.046;8.238;2022-11-03T01:22:21;7.36;92.57
66213;SHT31;53015;50.046;8.238;2022-11-03T01:24:47;7.25;92.72
66213;SHT31;53015;50.046;8.238;2022-11-03T01:27:15;7.19;92.68
66213;SHT31;53015;50.046;8.238;2022-11-03T01:29:42;7.25;92.50
66213;SHT31;53015;50.046;8.238;2022-11-03T01:32:08;7.08;92.72
66213;SHT31;53015;50.046;8.238;2022-11-03T01:34:34;6.98;93.07
66213;SHT31;53015;50.046;8.238;2022-11-03T01:36:59;6.91;93.40
66213;SHT31;53015;50.046;8.238;2022-11-03T01:39:25;6.98;93.71
66213;SHT31;53015;50.046;8.238;2022-11-03T01:41:51;7.10;93.73
66213;SHT31;53015;50.046;8.238;2022-11-03T01:46:52;7.31;92.30
66213;SHT31;53015;50.046;8.238;2022-11-03T01:49:24;7.22;92.62
66213;SHT31;53015;50.046;8.238;2022-11-03T01:51:55;7.25;92.92
66213;SHT31;53015;50.046;8.238;2022-11-03T01:54:22;7.11;93.22
66213;SHT31;53015;50.046;8.238;2022-11-03T01:56:50;7.10;93.36
66213;SHT31;53015;50.046;8.238;2022-11-03T01:59:17;7.17;93.21
66213;SHT31;53015;50.046;8.238;2022-11-03T02:01:45;7.18;92.99
66213;SHT31;53015;50.046;8.238;2022-11-03T02:04:21;7.12;92.93
66213;SHT31;53015;50.046;8.238;2022-11-03T02:06:53;7.05;93.18
66213;SHT31;53015;50.046;8.238;2022-11-03T02:09:20;6.98;93.84
66213;SHT31;53015;50.046;8.238;2022-11-03T02:11:46;6.91;94.13
66213;SHT31;53015;50.046;8.238;2022-11-03T02:14:29;6.81;94.34
66213;SHT31;53015;50.046;8.238;2022-11-03T02:16:58;6.75;94.62
66213;SHT31;53015;50.046;8.238;2022-11-03T02:19:29;6.76;94.59
66213;SHT31;53015;50.046;8.238;2022-11-03T02:24:47;6.93;94.15
66213;SHT31;53015;50.046;8.238;2022-11-03T02:27:13;7.00;93.51
66213;SHT31;53015;50.046;8.238;2022-11-03T02:29:39;6.94;93.52
66213;SHT31;53015;50.046;8.238;2022-11-03T02:32:32;6.81;93.64
66213;SHT31;53015;50.046;8.238;2022-11-03T02:35:02;6.94;93.87
66213;SHT31;53015;50.046;8.238;2022-11-03T02:37:33;6.87;93.78
66213;SHT31;53015;50.046;8.238;2022-11-03T02:40:07;6.84;93.61
66213;SHT31;53015;50.046;8.238;2022-11-03T02:42:35;6.91;93.92
66213;SHT31;53015;50.046;8.238;2022-11-03T02:45:04;6.86;93.72
66213;SHT31;53015;50.046;8.238;2022-11-03T02:47:30;6.77;93.85
66213;SHT31;53015;50.046;8.238;2022-11-03T02:49:57;6.77;93.90
66213;SHT31;53015;50.046;8.238;2022-11-03T02:52:39;6.81;93.88
66213;SHT31;53015;50.046;8.238;2022-11-03T02:55:21;6.77;93.59
66213;SHT31;53015;50.046;8.238;2022-11-03T03:00:48;6.53;94.39
66213;SHT31;53015;50.046;8.238;2022-11-03T03:03:36;6.50;94.48
66213;SHT31;53015;50.046;8.238;2022-11-03T03:06:04;6.73;94.50
66213;SHT31;53015;50.046;8.238;2022-11-03T03:08:31;6.80;93.95
66213;SHT31;53015;50.046;8.238;2022-11-03T03:10:59;6.68;93.50
66213;SHT31;53015;50.046;8.238;2022-11-03T03:13:26;6.60;93.92
66213;SHT31;53015;50.046;8.238;2022-11-03T03:16:11;6.59;94.37
66213;SHT31;53015;50.046;8.238;2022-11-03T03:18:50;6.53;94.12
66213;SHT31;53015;50.046;8.238;2022-11-03T03:21:22;6.54;93.77
66213;SHT31;53015;50.046;8.238;2022-11-03T03:23:56;6.53;94.02
66213;SHT31;53015;50.046;8.238;2022-11-03T03:26:29;6.62;94.17
66213;SHT31;53015;50.046;8.238;2022-11-03T03:29:11;6.62;94.10
66213;SHT31;53015;50.046;8.238;2022-11-03T03:31:40;6.70;93.75
66213;SHT31;53015;50.046;8.238;2022-11-03T03:34:07;6.72;93.41
66213;SHT31;53015;50.046;8.238;2022-11-03T03:36:35;6.68;93.33
66213;SHT31;53015;50.046;8.238;2022-11-03T03:39:03;6.72;93.48
66213;SHT31;53015;50.046;8.238;2022-11-03T03:41:31;6.56;93.78
66213;SHT31;53015;50.046;8.238;2022-11-03T03:44:01;6.49;94.20
66213;SHT31;53015;50.046;8.238;2022-11-03T03:46:34;6.42;94.45
66213;SHT31;53015;50.046;8.238;2022-11-03T03:49:01;6.62;94.53
66213;SHT31;53015;50.046;8.238;2022-11-03T03:51:27;6.68;93.87
66213;SHT31;53015;50.046;8.238;2022-11-03T03:53:54;6.68;93.99
66213;SHT31;53015;50.046;8.238;2022-11-03T03:56:46;6.73;93.94
66213;SHT31;53015;50.046;8.238;2022-11-03T03:59:12;6.79;93.84
66213;SHT31;53015;50.046;8.238;2022-11-03T04:01:38;6.81;93.95
66213;SHT31;53015;50.046;8.238;2022-11-03T04:04:03;6.84;93.19
66213;SHT31;53015;50.046;8.238;2022-11-03T04:06:29;6.79;93.34
66213;SHT31;53015;50.046;8.238;2022-11-03T04:08:54;6.90;93.69
66213;SHT31;53015;50.046;8.238;2022-11-03T04:11:20;6.90;93.48
66213;SHT31;53015;50.046;8.238;2022-11-03T04:14:04;6.90;93.38
66213;SHT31;53015;50.046;8.238;2022-11-03T04:16:48;6.66;93.99
66213;SHT31;53015;50.046;8.238;2022-11-03T04:19:33;6.69;94.39
66213;SHT31;53015;50.046;8.238;2022-11-03T04:22:17;6.73;94.04
66213;SHT31;53015;50.046;8.238;2022-11-03T04:24:49;6.59;93.88
66213;SHT31;53015;50.046;8.238;2022-11-03T04:27:23;6.46;94.25
66213;SHT31;53015;50.046;8.238;2022-11-03T04:29:51;6.41;94.49
66213;SHT31;53015;50.046;8.238;2022-11-03T04:32:17;6.36;94.61
66213;SHT31;53015;50.046;8.238;2022-11-03T04:34:46;6.50;94.76
66213;SHT31;53015;50.046;8.238;2022-11-03T04:37:12;6.42;94.34
66213;SHT31;53015;50.046;8.238;2022-11-03T04:39:38;6.35;94.61
66213;SHT31;53015;50.046;8.238;2022-11-03T04:42:18;6.29;94.90
66213;SHT31;53015;50.046;8.238;2022-11-03T04:44:45;6.41;95.25
66213;SHT31;53015;50.046;8.238;2022-11-03T04:47:12;6.38;94.62
66213;SHT31;53015;50.046;8.238;2022-11-03T04:49:37;6.35;94.69
66213;SHT31;53015;50.046;8.238;2022-11-03T04:52:12;6.35;94.78
66213;SHT31;53015;50.046;8.238;2022-11-03T04:54:38;6.48;94.59
66213;SHT31;53015;50.046;8.238;2022-11-03T04:57:09;6.49;94.09
66213;SHT31;53015;50.046;8.238;2022-11-03T04:59:35;6.32;94.38
66213;SHT31;53015;50.046;8.238;2022-11-03T05:02:00;6.38;94.35
66213;SHT31;53015;50.046;8.238;2022-11-03T05:04:27;6.24;94.76
66213;SHT31;53015;50.046;8.238;2022-11-03T05:06:53;6.20;95.02
66213;SHT31;53015;50.046;8.238;2022-11-03T05:09:31;6.35;95.13
66213;SHT31;53015;50.046;8.238;2022-11-03T05:11:56;6.36;94.73
66213;SHT31;53015;50.046;8.238;2022-11-03T05:14:25;6.35;94.72
66213;SHT31;53015;50.046;8.238;2022-11-03T05:16:51;6.32;94.63
66213;SHT31;53015;50.046;8.238;2022-11-03T05:19:21;6.21;94.73
66213;SHT31;53015;50.046;8.238;2022-11-03T05:21:49;6.43;94.65
66213;SHT31;53015;50.046;8.238;2022-11-03T05:24:15;6.43;94.52
66213;SHT31;53015;50.046;8.238;2022-11-03T05:26:43;6.36;94.45
66213;SHT31;53015;50.046;8.238;2022-11-03T05:29:20;6.46;94.68
66213;SHT31;53015;50.046;8.238;2022-11-03T05:31:47;6.52;94.08
66213;SHT31;53015;50.046;8.238;2022-11-03T05:34:43;6.45;94.23
66213;SHT31;53015;50.046;8.238;2022-11-03T05:37:23;6.21;94.70
66213;SHT31;53015;50.046;8.238;2022-11-03T05:39:49;6.26;95.16
66213;SHT31;53015;50.046;8.238;2022-11-03T05:44:47;6.36;94.75
66213;SHT31;53015;50.046;8.238;2022-11-03T05:47:18;6.39;94.45
66213;SHT31;53015;50.046;8.238;2022-11-03T05:49:46;6.36;94.44
66213;SHT31;53015;50.046;8.238;2022-11-03T05:52:23;6.29;94.46
66213;SHT31;53015;50.046;8.238;2022-11-03T05:54:50;6.22;94.62
66213;SHT31;53015;50.046;8.238;2022-11-03T05:57:17;6.20;95.02
66213;SHT31;53015;50.046;8.238;2022-11-03T05:59:45;6.42;94.92
66213;SHT31;53015;50.046;8.238;2022-11-03T06:02:44;6.49;94.05
66213;SHT31;53015;50.046;8.238;2022-11-03T06:05:19;6.38;94.12
66213;SHT31;53015;50.046;8.238;2022-11-03T06:07:45;6.35;94.48
66213;SHT31;53015;50.046;8.238;2022-11-03T06:12:43;6.25;94.73
66213;SHT31;53015;50.046;8.238;2022-11-03T06:15:23;6.36;94.34
66213;SHT31;53015;50.046;8.238;2022-11-03T06:17:50;6.25;94.60
66213;SHT31;53015;50.046;8.238;2022-11-03T06:20:19;6.21;94.81
66213;SHT31;53015;50.046;8.238;2022-11-03T06:22:45;6.26;95.21
66213;SHT31;53015;50.046;8.238;2022-11-03T06:27:41;6.62;94.09
66213;SHT31;53015;50.046;8.238;2022-11-03T06:32:44;6.35;94.31
66213;SHT31;53015;50.046;8.238;2022-11-03T06:35:11;6.41;94.42
66213;SHT31;53015;50.046;8.238;2022-11-03T06:37:37;6.32;94.61
66213;SHT31;53015;50.046;8.238;2022-11-03T06:42:34;6.22;94.91
66213;SHT31;53015;50.046;8.238;2022-11-03T06:45:00;6.21;95.12
66213;SHT31;53015;50.046;8.238;2022-11-03T06:47:34;6.21;95.31
66213;SHT31;53015;50.046;8.238;2022-11-03T06:49:59;6.20;95.52
66213;SHT31;53015;50.046;8.238;2022-11-03T06:52:35;6.22;95.39
66213;SHT31;53015;50.046;8.238;2022-11-03T06:57:41;6.20;95.30
66213;SHT31;53015;50.046;8.238;2022-11-03T07:00:28;6.31;95.36
66213;SHT31;53015;50.046;8.238;2022-11-03T07:03:01;6.41;95.50
66213;SHT31;53015;50.046;8.238;2022-11-03T07:05:28;6.53;95.41
66213;SHT31;53015;50.046;8.238;2022-11-03T07:07:57;6.86;94.63
66213;SHT31;53015;50.046;8.238;2022-11-03T07:10:30;6.89;94.23
66213;SHT31;53015;50.046;8.238;2022-11-03T07:12:57;6.87;93.93
66213;SHT31;53015;50.046;8.238;2022-11-03T07:15:27;6.84;94.14
66213;SHT31;53015;50.046;8.238;2022-11-03T07:17:55;6.96;94.46
66213;SHT31;53015;50.046;8.238;2022-11-03T07:20:21;7.18;93.83
66213;SHT31;53015;50.046;8.238;2022-11-03T07:22:46;7.22;94.09
66213;SHT31;53015;50.046;8.238;2022-11-03T07:25:15;7.25;94.13
66213;SHT31;53015;50.046;8.238;2022-11-03T07:27:42;7.32;93.87
66213;SHT31;53015;50.046;8.238;2022-11-03T07:32:44;7.54;93.80
66213;SHT31;53015;50.046;8.238;2022-11-03T07:37:42;7.87;92.99
66213;SHT31;53015;50.046;8.238;2022-11-03T07:40:13;7.84;92.86
66213;SHT31;53015;50.046;8.238;2022-11-03T07:42:40;8.04;92.25
66213;SHT31;53015;50.046;8.238;2022-11-03T07:48:26;8.10;92.46
66213;SHT31;53015;50.046;8.238;2022-11-03T07:50:55;8.12;92.52
66213;SHT31;53015;50.046;8.238;2022-11-03T07:55:57;8.41;91.66
66213;SHT31;53015;50.046;8.238;2022-11-03T07:58:28;8.50;91.64
66213;SHT31;53015;50.046;8.238;2022-11-03T08:00:56;8.66;91.78
66213;SHT31;53015;50.046;8.238;2022-11-03T08:03:45;8.73;91.39
66213;SHT31;53015;50.046;8.238;2022-11-03T08:06:11;8.77;91.16
66213;SHT31;53015;50.046;8.238;2022-11-03T08:08:36;8.84;91.31
66213;SHT31;53015;50.046;8.238;2022-11-03T08:11:02;8.83;90.98
66213;SHT31;53015;50.046;8.238;2022-11-03T08:13:28;8.76;91.72
66213;SHT31;53015;50.046;8.238;2022-11-03T08:15:54;8.79;91.81
66213;SHT31;53015;50.046;8.238;2022-11-03T08:18:19;8.76;91.80
66213;SHT31;53015;50.046;8.238;2022-11-03T08:20:44;8.77;91.88
66213;SHT31;53015;50.046;8.238;2022-11-03T08:23:10;8.75;91.79
66213;SHT31;53015;50.046;8.238;2022-11-03T08:25:36;8.75;91.80
66213;SHT31;53015;50.046;8.238;2022-11-03T08:28:01;8.76;92.08
66213;SHT31;53015;50.046;8.238;2022-11-03T08:30:28;8.91;91.77
66213;SHT31;53015;50.046;8.238;2022-11-03T08:32:54;8.99;91.42
66213;SHT31;53015;50.046;8.238;2022-11-03T08:35:19;8.93;91.47
66213;SHT31;53015;50.046;8.238;2022-11-03T08:37:44;9.01;91.39
66213;SHT31;53015;50.046;8.238;2022-11-03T08:40:10;9.05;91.34
66213;SHT31;53015;50.046;8.238;2022-11-03T08:42:35;9.05;91.54
66213;SHT31;53015;50.046;8.238;2022-11-03T08:45:01;9.07;91.55
66213;SHT31;53015;50.046;8.238;2022-11-03T08:47:26;9.20;90.99
66213;SHT31;53015;50.046;8.238;2022-11-03T08:49:52;9.30;90.30
66213;SHT31;53015;50.046;8.238;2022-11-03T08:52:17;9.38;90.29
66213;SHT31;53015;50.046;8.238;2022-11-03T08:54:43;9.53;89.62
66213;SHT31;53015;50.046;8.238;2022-11-03T08:57:09;9.52;89.30
66213;SHT31;53015;50.046;8.238;2022-11-03T08:59:34;9.52;89.19
66213;SHT31;53015;50.046;8.238;2022-11-03T09:02:00;9.58;89.19
66213;SHT31;53015;50.046;8.238;2022-11-03T09:04:25;9.62;89.53
66213;SHT31;53015;50.046;8.238;2022-11-03T09:06:50;9.72;88.69
66213;SHT31;53015;50.046;8.238;2022-11-03T09:09:16;9.73;88.73
66213;SHT31;53015;50.046;8.238;2022-11-03T09:11:41;9.90;88.93
66213;SHT31;53015;50.046;8.238;2022-11-03T09:14:06;10.04;88.29
66213;SHT31;53015;50.046;8.238;2022-11-03T09:16:32;10.13;88.09
66213;SHT31;53015;50.046;8.238;2022-11-03T09:18:57;10.20;87.57
66213;SHT31;53015;50.046;8.238;2022-11-03T09:21:23;10.27;87.57
66213;SHT31;53015;50.046;8.238;2022-11-03T09:23:48;10.42;87.36
66213;SHT31;53015;50.046;8.238;2022-11-03T09:26:13;10.56;86.86
66213;SHT31;53015;50.046;8.238;2022-11-03T09:28:39;10.69;86.56
66213;SHT31;53015;50.046;8.238;2022-11-03T09:31:04;10.88;86.29
66213;SHT31;53015;50.046;8.238;2022-11-03T09:33:30;10.83;85.85
66213;SHT31;53015;50.046;8.238;2022-11-03T09:35:55;10.77;85.42
66213;SHT31;53015;50.046;8.238;2022-11-03T09:38:20;10.80;85.49
66213;SHT31;53015;50.046;8.238;2022-11-03T09:40:46;10.82;86.03
66213;SHT31;53015;50.046;8.238;2022-11-03T09:43:11;10.89;86.29
66213;SHT31;53015;50.046;8.238;2022-11-03T09:45:38;11.01;86.14
66213;SHT31;53015;50.046;8.238;2022-11-03T09:48:03;11.03;85.06
66213;SHT31;53015;50.046;8.238;2022-11-03T09:50:30;11.10;84.84
66213;SHT31;53015;50.046;8.238;2022-11-03T09:52:56;11.28;85.45
66213;SHT31;53015;50.046;8.238;2022-11-03T09:55:25;11.39;84.79
66213;SHT31;53015;50.046;8.238;2022-11-03T09:57:53;11.50;84.16
66213;SHT31;53015;50.046;8.238;2022-11-03T10:00:21;11.48;83.54
66213;SHT31;53015;50.046;8.238;2022-11-03T10:02:47;11.55;83.60
66213;SHT31;53015;50.046;8.238;2022-11-03T10:05:17;11.79;84.13
66213;SHT31;53015;50.046;8.238;2022-11-03T10:07:43;11.76;83.34
66213;SHT31;53015;50.046;8.238;2022-11-03T10:10:16;11.78;83.16
66213;SHT31;53015;50.046;8.238;2022-11-03T10:12:42;11.81;82.78
66213;SHT31;53015;50.046;8.238;2022-11-03T10:15:15;11.83;82.83
66213;SHT31;53015;50.046;8.238;2022-11-03T10:17:42;11.82;82.64
66213;SHT31;53015;50.046;8.238;2022-11-03T10:20:10;12.03;82.77
66213;SHT31;53015;50.046;8.238;2022-11-03T10:22:36;12.09;82.41
66213;SHT31;53015;50.046;8.238;2022-11-03T10:25:27;12.19;81.96
66213;SHT31;53015;50.046;8.238;2022-11-03T10:28:22;12.21;82.59
66213;SHT31;53015;50.046;8.238;2022-11-03T10:33:37;12.55;81.99
66213;SHT31;53015;50.046;8.238;2022-11-03T10:38:41;12.57;81.27
66213;SHT31;53015;50.046;8.238;2022-11-03T10:41:12;12.55;81.91
66213;SHT31;53015;50.046;8.238;2022-11-03T10:43:42;12.40;81.28
66213;SHT31;53015;50.046;8.238;2022-11-03T10:46:20;12.40;81.50
66213;SHT31;53015;50.046;8.238;2022-11-03T10:49:10;12.44;82.00
66213;SHT31;53015;50.046;8.238;2022-11-03T10:51:36;12.49;81.63
66213;SHT31;53015;50.046;8.238;2022-11-03T10:54:03;12.57;80.21
66213;SHT31;53015;50.046;8.238;2022-11-03T10:56:33;12.62;80.04
66213;SHT31;53015;50.046;8.238;2022-11-03T10:58:59;12.58;80.39
66213;SHT31;53015;50.046;8.238;2022-11-03T11:01:26;12.58;80.07
66213;SHT31;53015;50.046;8.238;2022-11-03T11:03:51;12.65;80.69
66213;SHT31;53015;50.046;8.238;2022-11-03T11:06:29;12.82;80.31
66213;SHT31;53015;50.046;8.238;2022-11-03T11:09:03;12.75;79.39
66213;SHT31;53015;50.046;8.238;2022-11-03T11:11:29;12.74;80.34
66213;SHT31;53015;50.046;8.238;2022-11-03T11:17:00;12.91;80.48
66213;SHT31;53015;50.046;8.238;2022-11-03T11:19:27;12.84;79.82
66213;SHT31;53015;50.046;8.238;2022-11-03T11:29:59;12.74;80.46
66213;SHT31;53015;50.046;8.238;2022-11-03T11:32:54;12.74;80.73
66213;SHT31;53015;50.046;8.238;2022-11-03T11:37:49;12.81;80.99
66213;SHT31;53015;50.046;8.238;2022-11-03T11:48:30;12.99;79.80
66213;SHT31;53015;50.046;8.238;2022-11-03T11:50:59;12.86;80.93
66213;SHT31;53015;50.046;8.238;2022-11-03T11:53:26;12.88;80.64
66213;SHT31;53015;50.046;8.238;2022-11-03T11:55:56;12.79;80.64
66213;SHT31;53015;50.046;8.238;2022-11-03T11:58:43;12.85;80.69
66213;SHT31;53015;50.046;8.238;2022-11-03T12:01:26;12.76;80.30
66213;SHT31;53015;50.046;8.238;2022-11-03T12:03:55;12.84;80.74
66213;SHT31;53015;50.046;8.238;2022-11-03T12:06:34;12.78;80.53
66213;SHT31;53015;50.046;8.238;2022-11-03T12:16:51;12.81;81.38
66213;SHT31;53015;50.046;8.238;2022-11-03T12:19:40;12.62;80.88
66213;SHT31;53015;50.046;8.238;2022-11-03T12:24:53;12.71;81.33
66213;SHT31;53015;50.046;8.238;2022-11-03T12:29:57;12.62;81.24
66213;SHT31;53015;50.046;8.238;2022-11-03T12:32:24;12.59;81.60
66213;SHT31;53015;50.046;8.238;2022-11-03T12:34:49;12.57;81.90
66213;SHT31;53015;50.046;8.238;2022-11-03T12:37:15;12.62;81.26
66213;SHT31;53015;50.046;8.238;2022-11-03T12:39:40;12.65;82.38
66213;SHT31;53015;50.046;8.238;2022-11-03T12:42:06;12.64;81.97
66213;SHT31;53015;50.046;8.238;2022-11-03T12:44:32;12.61;81.54
66213;SHT31;53015;50.046;8.238;2022-11-03T12:46:58;12.74;81.54
66213;SHT31;53015;50.046;8.238;2022-11-03T12:49:23;12.78;81.41
66213;SHT31;53015;50.046;8.238;2022-11-03T12:51:49;12.86;81.26
66213;SHT31;53015;50.046;8.238;2022-11-03T12:54:14;12.89;81.26
66213;SHT31;53015;50.046;8.238;2022-11-03T12:56:40;12.86;81.60
66213;SHT31;53015;50.046;8.238;2022-11-03T12:59:05;12.81;81.25
66213;SHT31;53015;50.046;8.238;2022-11-03T13:01:32;12.76;81.38
66213;SHT31;53015;50.046;8.238;2022-11-03T13:03:58;12.72;81.20
66213;SHT31;53015;50.046;8.238;2022-11-03T13:06:23;12.72;82.17
66213;SHT31;53015;50.046;8.238;2022-11-03T13:08:49;12.76;81.40
66213;SHT31;53015;50.046;8.238;2022-11-03T13:11:14;12.65;82.29
66213;SHT31;53015;50.046;8.238;2022-11-03T13:13:59;12.58;82.38
66213;SHT31;53015;50.046;8.238;2022-11-03T13:16:24;12.57;82.23
66213;SHT31;53015;50.046;8.238;2022-11-03T13:18:50;12.47;82.37
66213;SHT31;53015;50.046;8.238;2022-11-03T13:21:15;12.31;83.37
66213;SHT31;53015;50.046;8.238;2022-11-03T13:23:41;12.38;83.90
66213;SHT31;53015;50.046;8.238;2022-11-03T13:26:06;12.34;83.78
66213;SHT31;53015;50.046;8.238;2022-11-03T13:28:32;12.34;84.18
66213;SHT31;53015;50.046;8.238;2022-11-03T13:30:57;12.38;83.71
66213;SHT31;53015;50.046;8.238;2022-11-03T13:33:23;12.33;84.05
66213;SHT31;53015;50.046;8.238;2022-11-03T13:35:48;12.21;83.50
66213;SHT31;53015;50.046;8.238;2022-11-03T13:38:13;12.21;84.06
66213;SHT31;53015;50.046;8.238;2022-11-03T13:40:39;12.19;84.26
66213;SHT31;53015;50.046;8.238;2022-11-03T13:43:04;12.21;84.37
66213;SHT31;53015;50.046;8.238;2022-11-03T13:45:30;12.14;84.30
66213;SHT31;53015;50.046;8.238;2022-11-03T13:47:55;12.17;84.60
66213;SHT31;53015;50.046;8.238;2022-11-03T13:50:21;12.21;84.68
66213;SHT31;53015;50.046;8.238;2022-11-03T13:52:48;12.19;84.84
66213;SHT31;53015;50.046;8.238;2022-11-03T13:55:13;12.16;84.81
66213;SHT31;53015;50.046;8.238;2022-11-03T13:57:39;12.17;85.03
66213;SHT31;53015;50.046;8.238;2022-11-03T14:00:05;12.19;85.15
66213;SHT31;53015;50.046;8.238;2022-11-03T14:02:31;12.20;85.07
66213;SHT31;53015;50.046;8.238;2022-11-03T14:04:56;12.17;84.87
66213;SHT31;53015;50.046;8.238;2022-11-03T14:07:21;12.27;84.63
66213;SHT31;53015;50.046;8.238;2022-11-03T14:09:47;12.38;84.47
66213;SHT31;53015;50.046;8.238;2022-11-03T14:12:12;12.38;84.55
66213;SHT31;53015;50.046;8.238;2022-11-03T14:15:07;12.33;84.30
66213;SHT31;53015;50.046;8.238;2022-11-03T14:17:33;12.31;84.40
66213;SHT31;53015;50.046;8.238;2022-11-03T14:19:59;12.19;85.01
66213;SHT31;53015;50.046;8.238;2022-11-03T14:22:24;12.26;85.05
66213;SHT31;53015;50.046;8.238;2022-11-03T14:24:50;12.27;84.94
66213;SHT31;53015;50.046;8.238;2022-11-03T14:27:17;12.29;84.94
66213;SHT31;53015;50.046;8.238;2022-11-03T14:29:43;12.31;85.22
66213;SHT31;53015;50.046;8.238;2022-11-03T14:32:09;12.31;85.31
66213;SHT31;53015;50.046;8.238;2022-11-03T14:34:35;12.30;85.18
66213;SHT31;53015;50.046;8.238;2022-11-03T14:37:01;12.29;85.16
66213;SHT31;53015;50.046;8.238;2022-11-03T14:39:26;12.31;85.43
66213;SHT31;53015;50.046;8.238;2022-11-03T14:41:52;12.30;85.49
66213;SHT31;53015;50.046;8.238;2022-11-03T14:44:34;12.29;85.49
66213;SHT31;53015;50.046;8.238;2022-11-03T14:47:01;12.34;85.63
66213;SHT31;53015;50.046;8.238;2022-11-03T14:49:30;12.40;85.36
66213;SHT31;53015;50.046;8.238;2022-11-03T14:51:57;12.40;85.27
66213;SHT31;53015;50.046;8.238;2022-11-03T14:54:24;12.44;85.50
66213;SHT31;53015;50.046;8.238;2022-11-03T14:56:49;12.49;85.20
66213;SHT31;53015;50.046;8.238;2022-11-03T14:59:15;12.49;85.79
66213;SHT31;53015;50.046;8.238;2022-11-03T15:01:40;12.42;85.35
66213;SHT31;53015;50.046;8.238;2022-11-03T15:04:06;12.41;85.42
66213;SHT31;53015;50.046;8.238;2022-11-03T15:06:36;12.37;85.73
66213;SHT31;53015;50.046;8.238;2022-11-03T15:09:02;12.34;85.85
66213;SHT31;53015;50.046;8.238;2022-11-03T15:11:28;12.41;86.26
66213;SHT31;53015;50.046;8.238;2022-11-03T15:13:54;12.40;85.76
66213;SHT31;53015;50.046;8.238;2022-11-03T15:16:20;12.40;85.76
66213;SHT31;53015;50.046;8.238;2022-11-03T15:18:46;12.40;86.16
66213;SHT31;53015;50.046;8.238;2022-11-03T15:21:12;12.44;85.68
66213;SHT31;53015;50.046;8.238;2022-11-03T15:23:37;12.41;85.63
66213;SHT31;53015;50.046;8.238;2022-11-03T15:26:03;12.38;85.68
66213;SHT31;53015;50.046;8.238;2022-11-03T15:28:28;12.36;86.05
66213;SHT31;53015;50.046;8.238;2022-11-03T15:30:54;12.29;85.89
66213;SHT31;53015;50.046;8.238;2022-11-03T15:33:19;12.40;86.08
66213;SHT31;53015;50.046;8.238;2022-11-03T15:35:45;12.37;86.43
66213;SHT31;53015;50.046;8.238;2022-11-03T15:38:10;12.33;86.92
66213;SHT31;53015;50.046;8.238;2022-11-03T15:40:37;12.34;87.20
66213;SHT31;53015;50.046;8.238;2022-11-03T15:43:03;12.23;87.58
66213;SHT31;53015;50.046;8.238;2022-11-03T15:45:31;12.13;87.57
66213;SHT31;53015;50.046;8.238;2022-11-03T15:47:57;12.14;87.70
66213;SHT31;53015;50.046;8.238;2022-11-03T15:50:22;12.13;87.44
66213;SHT31;53015;50.046;8.238;2022-11-03T15:52:48;12.09;87.97
66213;SHT31;53015;50.046;8.238;2022-11-03T15:55:13;12.09;88.22
66213;SHT31;53015;50.046;8.238;2022-11-03T15:57:39;12.04;88.15
66213;SHT31;53015;50.046;8.238;2022-11-03T16:00:05;12.04;87.97
66213;SHT31;53015;50.046;8.238;2022-11-03T16:02:31;12.06;88.32
66213;SHT31;53015;50.046;8.238;2022-11-03T16:04:57;12.09;88.66
66213;SHT31;53015;50.046;8.238;2022-11-03T16:07:23;12.03;88.89
66213;SHT31;53015;50.046;8.238;2022-11-03T16:09:48;11.99;89.01
66213;SHT31;53015;50.046;8.238;2022-11-03T16:12:14;11.96;89.14
66213;SHT31;53015;50.046;8.238;2022-11-03T16:14:40;12.00;88.98
66213;SHT31;53015;50.046;8.238;2022-11-03T16:17:05;12.02;89.00
66213;SHT31;53015;50.046;8.238;2022-11-03T16:19:31;12.02;89.43
66213;SHT31;53015;50.046;8.238;2022-11-03T16:21:57;11.92;90.31
66213;SHT31;53015;50.046;8.238;2022-11-03T16:24:23;11.85;89.79
66213;SHT31;53015;50.046;8.238;2022-11-03T16:26:48;11.92;90.00
66213;SHT31;53015;50.046;8.238;2022-11-03T16:29:16;11.87;90.68
66213;SHT31;53015;50.046;8.238;2022-11-03T16:31:42;11.78;90.42
66213;SHT31;53015;50.046;8.238;2022-11-03T16:34:07;11.83;91.07
66213;SHT31;53015;50.046;8.238;2022-11-03T16:36:34;11.86;91.24
66213;SHT31;53015;50.046;8.238;2022-11-03T16:39:00;11.83;91.18
66213;SHT31;53015;50.046;8.238;2022-11-03T16:41:25;11.83;91.86
66213;SHT31;53015;50.046;8.238;2022-11-03T16:43:51;11.82;92.33
66213;SHT31;53015;50.046;8.238;2022-11-03T16:46:16;11.73;92.66
66213;SHT31;53015;50.046;8.238;2022-11-03T16:48:42;11.69;93.16
66213;SHT31;53015;50.046;8.238;2022-11-03T16:51:07;11.65;93.18
66213;SHT31;53015;50.046;8.238;2022-11-03T16:53:33;11.58;92.99
66213;SHT31;53015;50.046;8.238;2022-11-03T16:55:59;11.57;93.37
66213;SHT31;53015;50.046;8.238;2022-11-03T16:58:25;11.48;93.22
66213;SHT31;53015;50.046;8.238;2022-11-03T17:00:50;11.50;93.15
66213;SHT31;53015;50.046;8.238;2022-11-03T17:03:16;11.47;92.59
66213;SHT31;53015;50.046;8.238;2022-11-03T17:05:41;11.59;91.72